BCS169 LOWW-EDDP
Flight info
| Callsign | BCS169 |
|---|---|
| Flight time | 0h 52m |
| Altitude | 30000 |
| Route | LANUX DCT VLM DCT BEFRE DCT IVQOQ T951 YAWOY YAWOY1V |
| Aircraft | A333/H-SDE3GHIJ2J3J5M1RVWXY/LB2D1 |
Departure
| Time | 2026-04-25 18:34 |
|---|---|
| Airport | Vienna International Airport (LOWW) |
Arrival
| Time | 2026-04-25 19:27 |
|---|---|
| Airport | Leipzig/Halle Airport (EDDP) |
| Time | Latitude | Longitude | Altitude | Speed | Heading |
|---|---|---|---|---|---|
| 2026-04-25 18:00 | 48.12152 | 16.54944 | 578 ft | 0 kts | 25° |
| 2026-04-25 18:22 | 48.12145 | 16.54939 | 624 ft | 2 kts | 28° |
| 2026-04-25 18:22 | 48.12128 | 16.54919 | 615 ft | 2 kts | 97° |
| 2026-04-25 18:22 | 48.12131 | 16.54904 | 623 ft | 0 kts | 112° |
| 2026-04-25 18:23 | 48.12131 | 16.54903 | 623 ft | 0 kts | 112° |
| 2026-04-25 18:28 | 48.12129 | 16.54906 | 623 ft | 0 kts | 122° |
| 2026-04-25 18:28 | 48.12122 | 16.54913 | 624 ft | 6 kts | 139° |
| 2026-04-25 18:29 | 48.11931 | 16.55179 | 622 ft | 18 kts | 160° |
| 2026-04-25 18:29 | 48.11853 | 16.55290 | 623 ft | 15 kts | 120° |
| 2026-04-25 18:30 | 48.11708 | 16.55741 | 628 ft | 22 kts | 116° |
| 2026-04-25 18:30 | 48.11638 | 16.55956 | 634 ft | 23 kts | 116° |
| 2026-04-25 18:30 | 48.11563 | 16.56187 | 626 ft | 26 kts | 116° |
| 2026-04-25 18:30 | 48.11484 | 16.56427 | 627 ft | 27 kts | 116° |
| 2026-04-25 18:31 | 48.11410 | 16.56653 | 626 ft | 23 kts | 116° |
| 2026-04-25 18:31 | 48.11342 | 16.56863 | 631 ft | 22 kts | 115° |
| 2026-04-25 18:31 | 48.11278 | 16.57062 | 630 ft | 22 kts | 115° |
| 2026-04-25 18:31 | 48.11212 | 16.57264 | 633 ft | 22 kts | 116° |
| 2026-04-25 18:32 | 48.11169 | 16.57395 | 634 ft | 5 kts | 115° |
| 2026-04-25 18:32 | 48.11148 | 16.57460 | 629 ft | 8 kts | 118° |
| 2026-04-25 18:32 | 48.11107 | 16.57517 | 630 ft | 8 kts | 157° |
| 2026-04-25 18:32 | 48.11061 | 16.57509 | 629 ft | 10 kts | 200° |
| 2026-04-25 18:33 | 48.10974 | 16.57412 | 637 ft | 16 kts | 254° |
| 2026-04-25 18:33 | 48.11006 | 16.57265 | 635 ft | 20 kts | 297° |
| 2026-04-25 18:33 | 48.11145 | 16.56840 | 637 ft | 75 kts | 294° |
| 2026-04-25 18:33 | 48.11458 | 16.55874 | 629 ft | 129 kts | 297° |
| 2026-04-25 18:34 | 48.11924 | 16.54439 | 661 ft | 174 kts | 295° |
| 2026-04-25 18:34 | 48.12402 | 16.52709 | 1206 ft | 184 kts | 285° |
| 2026-04-25 18:34 | 48.12578 | 16.50829 | 2043 ft | 179 kts | 267° |
| 2026-04-25 18:34 | 48.12264 | 16.49104 | 3082 ft | 169 kts | 253° |
| 2026-04-25 18:35 | 48.11629 | 16.47522 | 3580 ft | 186 kts | 249° |
| 2026-04-25 18:35 | 48.11174 | 16.45721 | 4225 ft | 184 kts | 276° |
| 2026-04-25 18:35 | 48.11464 | 16.43882 | 4874 ft | 187 kts | 297° |
| 2026-04-25 18:35 | 48.12010 | 16.41992 | 5272 ft | 207 kts | 298° |
| 2026-04-25 18:36 | 48.12642 | 16.39977 | 5507 ft | 223 kts | 310° |
| 2026-04-25 18:36 | 48.13229 | 16.37675 | 5412 ft | 249 kts | 300° |
| 2026-04-25 18:36 | 48.13649 | 16.35083 | 5649 ft | 263 kts | 293° |
| 2026-04-25 18:36 | 48.13966 | 16.32366 | 6226 ft | 265 kts | 291° |
| 2026-04-25 18:37 | 48.14354 | 16.29702 | 6898 ft | 260 kts | 295° |
| 2026-04-25 18:37 | 48.14676 | 16.27035 | 7541 ft | 261 kts | 288° |
| 2026-04-25 18:37 | 48.14657 | 16.24356 | 8551 ft | 253 kts | 267° |
| 2026-04-25 18:37 | 48.14846 | 16.21790 | 9472 ft | 251 kts | 294° |
| 2026-04-25 18:38 | 48.15922 | 16.19701 | 10096 ft | 263 kts | 320° |
| 2026-04-25 18:38 | 48.17517 | 16.18228 | 10607 ft | 277 kts | 330° |
| 2026-04-25 18:38 | 48.19285 | 16.16912 | 11135 ft | 290 kts | 331° |
| 2026-04-25 18:38 | 48.21133 | 16.15576 | 11654 ft | 301 kts | 332° |
| 2026-04-25 18:39 | 48.23049 | 16.14186 | 12203 ft | 311 kts | 331° |
| 2026-04-25 18:39 | 48.25027 | 16.12737 | 12746 ft | 321 kts | 330° |
| 2026-04-25 18:39 | 48.27058 | 16.11240 | 13310 ft | 331 kts | 330° |
| 2026-04-25 18:39 | 48.29155 | 16.09688 | 13857 ft | 340 kts | 330° |
| 2026-04-25 18:40 | 48.31304 | 16.08095 | 14359 ft | 349 kts | 330° |
| 2026-04-25 18:40 | 48.33504 | 16.06461 | 14860 ft | 357 kts | 330° |
| 2026-04-25 18:40 | 48.35724 | 16.04810 | 15382 ft | 364 kts | 330° |
| 2026-04-25 18:40 | 48.38041 | 16.03085 | 15901 ft | 370 kts | 330° |
| 2026-04-25 18:41 | 48.40325 | 16.01383 | 16454 ft | 372 kts | 330° |
| 2026-04-25 18:41 | 48.42687 | 15.99622 | 16997 ft | 374 kts | 330° |
| 2026-04-25 18:41 | 48.44996 | 15.97897 | 17501 ft | 379 kts | 330° |
| 2026-04-25 18:41 | 48.47413 | 15.96087 | 18029 ft | 384 kts | 330° |
| 2026-04-25 18:42 | 48.49780 | 15.94315 | 18629 ft | 385 kts | 330° |
| 2026-04-25 18:42 | 48.50591 | 15.93708 | 18823 ft | 386 kts | 330° |
| 2026-04-25 18:42 | 48.54606 | 15.90696 | 19721 ft | 390 kts | 330° |
| 2026-04-25 18:42 | 48.57032 | 15.88840 | 20242 ft | 392 kts | 328° |
| 2026-04-25 18:43 | 48.59423 | 15.86849 | 20758 ft | 393 kts | 327° |
| 2026-04-25 18:43 | 48.61808 | 15.84811 | 21267 ft | 396 kts | 327° |
| 2026-04-25 18:43 | 48.64212 | 15.82750 | 21765 ft | 398 kts | 327° |
| 2026-04-25 18:43 | 48.66631 | 15.80676 | 22284 ft | 400 kts | 327° |
| 2026-04-25 18:44 | 48.69051 | 15.78601 | 22833 ft | 401 kts | 327° |
| 2026-04-25 18:44 | 48.71486 | 15.76512 | 23322 ft | 403 kts | 327° |
| 2026-04-25 18:44 | 48.73933 | 15.74410 | 23750 ft | 406 kts | 327° |
| 2026-04-25 18:44 | 48.76400 | 15.72289 | 24125 ft | 409 kts | 327° |
| 2026-04-25 18:45 | 48.78882 | 15.70154 | 24511 ft | 412 kts | 327° |
| 2026-04-25 18:45 | 48.81384 | 15.67998 | 24903 ft | 414 kts | 327° |
| 2026-04-25 18:45 | 48.83899 | 15.65830 | 25274 ft | 417 kts | 327° |
| 2026-04-25 18:45 | 48.86427 | 15.63647 | 25668 ft | 420 kts | 327° |
| 2026-04-25 18:46 | 48.89009 | 15.61537 | 26035 ft | 424 kts | 330° |
| 2026-04-25 18:46 | 48.91683 | 15.59613 | 26451 ft | 427 kts | 332° |
| 2026-04-25 18:46 | 48.94404 | 15.57769 | 26839 ft | 429 kts | 333° |
| 2026-04-25 18:46 | 48.97149 | 15.55963 | 27208 ft | 432 kts | 333° |
| 2026-04-25 18:47 | 48.99923 | 15.54153 | 27540 ft | 435 kts | 334° |
| 2026-04-25 18:47 | 49.02713 | 15.52331 | 27878 ft | 438 kts | 334° |
| 2026-04-25 18:47 | 49.05516 | 15.50491 | 28249 ft | 440 kts | 334° |
| 2026-04-25 18:47 | 49.08335 | 15.48629 | 28614 ft | 442 kts | 334° |
| 2026-04-25 18:48 | 49.11159 | 15.46752 | 28975 ft | 445 kts | 334° |
| 2026-04-25 18:48 | 49.14001 | 15.44858 | 29321 ft | 447 kts | 334° |
| 2026-04-25 18:48 | 49.16859 | 15.42948 | 29719 ft | 448 kts | 334° |
| 2026-04-25 18:48 | 49.19713 | 15.41037 | 29981 ft | 448 kts | 334° |
| 2026-04-25 18:49 | 49.25347 | 15.37263 | 30000 ft | 439 kts | 334° |
| 2026-04-25 18:49 | 49.30940 | 15.33502 | 30002 ft | 439 kts | 333° |
| 2026-04-25 18:50 | 49.36486 | 15.29763 | 30004 ft | 438 kts | 334° |
| 2026-04-25 18:50 | 49.42092 | 15.25975 | 30012 ft | 437 kts | 333° |
| 2026-04-25 18:51 | 49.45767 | 15.23488 | 30003 ft | 435 kts | 333° |
| 2026-04-25 18:51 | 49.53168 | 15.18465 | 30006 ft | 434 kts | 333° |
| 2026-04-25 18:52 | 49.58658 | 15.14728 | 30006 ft | 434 kts | 333° |
| 2026-04-25 18:52 | 49.64181 | 15.10960 | 30005 ft | 434 kts | 333° |
| 2026-04-25 18:53 | 49.69739 | 15.07316 | 30020 ft | 434 kts | 339° |
| 2026-04-25 18:53 | 49.75624 | 15.05137 | 30005 ft | 436 kts | 345° |
| 2026-04-25 18:54 | 49.84560 | 15.02509 | 30003 ft | 436 kts | 346° |
| 2026-04-25 18:55 | 49.90526 | 15.00805 | 30029 ft | 436 kts | 346° |
| 2026-04-25 18:55 | 49.96486 | 14.99074 | 30005 ft | 436 kts | 346° |
| 2026-04-25 18:56 | 50.02446 | 14.97324 | 30007 ft | 436 kts | 346° |
| 2026-04-25 18:56 | 50.08402 | 14.95568 | 29995 ft | 436 kts | 345° |
| 2026-04-25 18:57 | 50.14353 | 14.93808 | 29996 ft | 436 kts | 345° |
| 2026-04-25 18:57 | 50.20268 | 14.92057 | 29997 ft | 436 kts | 345° |
| 2026-04-25 18:58 | 50.26205 | 14.90294 | 30005 ft | 435 kts | 346° |
| 2026-04-25 18:58 | 50.35131 | 14.87636 | 29999 ft | 435 kts | 346° |
| 2026-04-25 18:59 | 50.47011 | 14.84083 | 30004 ft | 434 kts | 346° |
| 2026-04-25 19:00 | 50.54916 | 14.81705 | 30006 ft | 434 kts | 346° |
| 2026-04-25 19:01 | 50.63813 | 14.79024 | 30019 ft | 434 kts | 345° |
| 2026-04-25 19:01 | 50.69720 | 14.77239 | 29990 ft | 431 kts | 345° |
| 2026-04-25 19:02 | 50.78550 | 14.74558 | 29992 ft | 431 kts | 345° |
| 2026-04-25 19:03 | 50.86382 | 14.72172 | 29994 ft | 430 kts | 345° |
| 2026-04-25 19:03 | 50.90141 | 14.70181 | 29925 ft | 427 kts | 329° |
| 2026-04-25 19:03 | 50.92580 | 14.67536 | 29650 ft | 425 kts | 316° |
| 2026-04-25 19:04 | 50.95686 | 14.59751 | 29089 ft | 422 kts | 292° |
| 2026-04-25 19:04 | 50.96624 | 14.55339 | 28807 ft | 422 kts | 289° |
| 2026-04-25 19:05 | 50.98183 | 14.46432 | 28274 ft | 419 kts | 287° |
| 2026-04-25 19:05 | 50.99661 | 14.37531 | 27726 ft | 415 kts | 287° |
| 2026-04-25 19:05 | 51.00409 | 14.33132 | 27466 ft | 409 kts | 287° |
| 2026-04-25 19:06 | 51.01151 | 14.28821 | 27104 ft | 401 kts | 288° |
| 2026-04-25 19:06 | 51.02610 | 14.20462 | 26210 ft | 390 kts | 288° |
| 2026-04-25 19:06 | 51.03332 | 14.16350 | 25777 ft | 385 kts | 288° |
| 2026-04-25 19:07 | 51.04746 | 14.08266 | 24911 ft | 375 kts | 288° |
| 2026-04-25 19:07 | 51.05440 | 14.04283 | 24483 ft | 372 kts | 288° |
| 2026-04-25 19:08 | 51.06812 | 13.96376 | 23637 ft | 370 kts | 288° |
| 2026-04-25 19:08 | 51.07491 | 13.92442 | 23150 ft | 367 kts | 288° |
| 2026-04-25 19:09 | 51.09485 | 13.80843 | 21866 ft | 358 kts | 288° |
| 2026-04-25 19:09 | 51.09926 | 13.78267 | 21582 ft | 357 kts | 288° |
| 2026-04-25 19:09 | 51.11423 | 13.69496 | 20601 ft | 350 kts | 287° |
| 2026-04-25 19:10 | 51.12057 | 13.65768 | 20187 ft | 347 kts | 287° |
| 2026-04-25 19:10 | 51.12684 | 13.62072 | 19771 ft | 345 kts | 287° |
| 2026-04-25 19:10 | 51.13304 | 13.58412 | 19366 ft | 342 kts | 287° |
| 2026-04-25 19:10 | 51.13920 | 13.54763 | 18958 ft | 340 kts | 287° |
| 2026-04-25 19:11 | 51.14532 | 13.51136 | 18553 ft | 338 kts | 287° |
| 2026-04-25 19:11 | 51.15138 | 13.47535 | 18143 ft | 336 kts | 287° |
| 2026-04-25 19:11 | 51.15740 | 13.43950 | 17703 ft | 333 kts | 287° |
| 2026-04-25 19:11 | 51.16334 | 13.40402 | 17304 ft | 331 kts | 287° |
| 2026-04-25 19:12 | 51.16921 | 13.36863 | 16929 ft | 330 kts | 285° |
| 2026-04-25 19:12 | 51.17281 | 13.33252 | 16557 ft | 331 kts | 277° |
| 2026-04-25 19:12 | 51.17377 | 13.29592 | 16175 ft | 330 kts | 275° |
| 2026-04-25 19:12 | 51.17399 | 13.25946 | 15790 ft | 329 kts | 274° |
| 2026-04-25 19:13 | 51.17399 | 13.22308 | 15389 ft | 327 kts | 274° |
| 2026-04-25 19:13 | 51.17391 | 13.18696 | 14998 ft | 325 kts | 274° |
| 2026-04-25 19:13 | 51.17379 | 13.15101 | 14610 ft | 324 kts | 273° |
| 2026-04-25 19:13 | 51.17367 | 13.11477 | 14232 ft | 333 kts | 273° |
| 2026-04-25 19:14 | 51.17361 | 13.07738 | 13807 ft | 341 kts | 273° |
| 2026-04-25 19:14 | 51.17359 | 13.05235 | 13475 ft | 341 kts | 273° |
| 2026-04-25 19:14 | 51.17357 | 13.00200 | 12836 ft | 338 kts | 273° |
| 2026-04-25 19:14 | 51.17356 | 12.96486 | 12384 ft | 331 kts | 273° |
| 2026-04-25 19:15 | 51.17349 | 12.92884 | 12007 ft | 318 kts | 273° |
| 2026-04-25 19:15 | 51.17335 | 12.89457 | 11608 ft | 300 kts | 273° |
| 2026-04-25 19:15 | 51.17314 | 12.86226 | 11230 ft | 284 kts | 273° |
| 2026-04-25 19:15 | 51.17292 | 12.83155 | 10853 ft | 270 kts | 273° |
| 2026-04-25 19:16 | 51.17266 | 12.80225 | 10486 ft | 258 kts | 273° |
| 2026-04-25 19:16 | 51.17237 | 12.77404 | 10098 ft | 253 kts | 273° |
| 2026-04-25 19:16 | 51.17242 | 12.74609 | 9645 ft | 250 kts | 280° |
| 2026-04-25 19:16 | 51.17840 | 12.72079 | 9177 ft | 245 kts | 306° |
| 2026-04-25 19:17 | 51.19155 | 12.70382 | 8699 ft | 249 kts | 333° |
| 2026-04-25 19:17 | 51.20875 | 12.69919 | 8242 ft | 258 kts | 357° |
| 2026-04-25 19:17 | 51.22669 | 12.70312 | 7780 ft | 261 kts | 4° |
| 2026-04-25 19:17 | 51.24451 | 12.70862 | 7338 ft | 261 kts | 5° |
| 2026-04-25 19:18 | 51.26228 | 12.71420 | 6893 ft | 260 kts | 4° |
| 2026-04-25 19:18 | 51.27991 | 12.71513 | 6456 ft | 249 kts | 344° |
| 2026-04-25 19:18 | 51.29631 | 12.70734 | 5990 ft | 243 kts | 335° |
| 2026-04-25 19:18 | 51.31190 | 12.69790 | 5489 ft | 237 kts | 335° |
| 2026-04-25 19:19 | 51.32704 | 12.68862 | 5054 ft | 230 kts | 334° |
| 2026-04-25 19:19 | 51.34185 | 12.67962 | 4587 ft | 225 kts | 334° |
| 2026-04-25 19:19 | 51.35636 | 12.67086 | 4125 ft | 221 kts | 335° |
| 2026-04-25 19:19 | 51.36581 | 12.66518 | 3848 ft | 217 kts | 334° |
| 2026-04-25 19:20 | 51.38444 | 12.65399 | 3229 ft | 209 kts | 329° |
| 2026-04-25 19:20 | 51.39470 | 12.63945 | 2975 ft | 191 kts | 302° |
| 2026-04-25 19:20 | 51.40071 | 12.62148 | 2972 ft | 175 kts | 295° |
| 2026-04-25 19:20 | 51.40557 | 12.60453 | 3012 ft | 160 kts | 295° |
| 2026-04-25 19:21 | 51.40998 | 12.58863 | 3014 ft | 154 kts | 295° |
| 2026-04-25 19:21 | 51.41839 | 12.55748 | 2996 ft | 153 kts | 295° |
| 2026-04-25 19:21 | 51.42256 | 12.54179 | 3000 ft | 154 kts | 295° |
| 2026-04-25 19:22 | 51.42534 | 12.52517 | 2997 ft | 156 kts | 282° |
| 2026-04-25 19:22 | 51.42579 | 12.50763 | 2996 ft | 159 kts | 274° |
| 2026-04-25 19:22 | 51.42424 | 12.47335 | 3004 ft | 147 kts | 272° |
| 2026-04-25 19:23 | 51.42344 | 12.45709 | 2975 ft | 146 kts | 272° |
| 2026-04-25 19:23 | 51.42194 | 12.42464 | 2577 ft | 146 kts | 272° |
| 2026-04-25 19:23 | 51.42117 | 12.40840 | 2366 ft | 144 kts | 272° |
| 2026-04-25 19:24 | 51.42043 | 12.39290 | 2160 ft | 135 kts | 273° |
| 2026-04-25 19:24 | 51.41974 | 12.37813 | 1981 ft | 132 kts | 273° |
| 2026-04-25 19:24 | 51.41840 | 12.34958 | 1634 ft | 124 kts | 273° |
| 2026-04-25 19:25 | 51.41715 | 12.32210 | 1272 ft | 125 kts | 272° |
| 2026-04-25 19:25 | 51.41658 | 12.30822 | 1083 ft | 125 kts | 271° |
| 2026-04-25 19:25 | 51.41586 | 12.29398 | 949 ft | 131 kts | 268° |
| 2026-04-25 19:26 | 51.41510 | 12.27929 | 785 ft | 132 kts | 266° |
| 2026-04-25 19:26 | 51.41423 | 12.26505 | 615 ft | 127 kts | 269° |
| 2026-04-25 19:26 | 51.41368 | 12.25095 | 476 ft | 127 kts | 269° |
| 2026-04-25 19:26 | 51.41329 | 12.23930 | 470 ft | 77 kts | 265° |
| 2026-04-25 19:27 | 51.41299 | 12.23394 | 468 ft | 26 kts | 262° |
| 2026-04-25 19:27 | 51.41236 | 12.23276 | 468 ft | 19 kts | 194° |
| 2026-04-25 19:27 | 51.41172 | 12.23281 | 469 ft | 0 kts | 166° |
| 2026-04-25 19:28 | 51.41096 | 12.23294 | 471 ft | 27 kts | 168° |
| 2026-04-25 19:28 | 51.41042 | 12.23524 | 473 ft | 25 kts | 86° |
| 2026-04-25 19:29 | 51.41056 | 12.23797 | 473 ft | 26 kts | 86° |
| 2026-04-25 19:29 | 51.41068 | 12.24088 | 469 ft | 22 kts | 86° |
| 2026-04-25 19:29 | 51.41077 | 12.24303 | 466 ft | 19 kts | 86° |
| 2026-04-25 19:29 | 51.41090 | 12.24522 | 468 ft | 19 kts | 84° |
| 2026-04-25 19:30 | 51.41049 | 12.24638 | 470 ft | 12 kts | 160° |
| 2026-04-25 19:30 | 51.41014 | 12.24648 | 468 ft | 0 kts | 173° |
| 2026-04-25 19:30 | 51.41010 | 12.24649 | 469 ft | 2 kts | 173° |
| 2026-04-25 19:30 | 51.40986 | 12.24653 | 470 ft | 5 kts | 174° |
| 2026-04-25 19:31 | 51.40940 | 12.24661 | 467 ft | 0 kts | 174° |
| 2026-04-25 19:32 | 51.40939 | 12.24661 | 467 ft | 1 kts | 174° |
| 2026-04-25 19:32 | 51.40920 | 12.24664 | 469 ft | 4 kts | 174° |
| 2026-04-25 19:32 | 51.40909 | 12.24664 | 469 ft | 5 kts | 180° |
| 2026-04-25 19:33 | 51.40882 | 12.24668 | 467 ft | 6 kts | 163° |
| 2026-04-25 19:33 | 51.40847 | 12.24734 | 467 ft | 9 kts | 109° |
| 2026-04-25 19:33 | 51.40846 | 12.24762 | 468 ft | 2 kts | 91° |
| 2026-04-25 19:33 | 51.40846 | 12.24790 | 468 ft | 3 kts | 87° |
| 2026-04-25 19:34 | 51.40847 | 12.24806 | 469 ft | 0 kts | 86° |
| 2026-04-25 19:34 | 51.40848 | 12.24817 | 469 ft | 0 kts | 86° |